Time;durP1;ratioP1;P1;durP2;ratioP2;P2;SDS_P1;SDS_P2;PMS_P1;PMS_P2;Temp;Humidity;BMP_temperature;BMP_pressure;BME280_temperature;BME280_humidity;BME280_pressure;Samples;Min_cycle;Max_cycle;Signal;HPM_P1;HPM_P2
2023/05/23 00:00:53;;;;;;;5.50;5.00;;;19.10;99.40;;;;;;4940193;29;20526;-82
2023/05/23 00:04:08;;;;;;;5.30;4.80;;;19.00;99.50;;;;;;4936015;29;20500;-83
2023/05/23 00:06:57;;;;;;;5.10;4.33;;;18.90;99.50;;;;;;4940699;29;20437;-83
2023/05/23 00:09:31;;;;;;;6.27;5.67;;;18.80;99.70;;;;;;4924863;29;20474;-82
2023/05/23 00:12:06;;;;;;;5.13;4.63;;;18.80;99.80;;;;;;4933925;29;20456;-82
2023/05/23 00:14:47;;;;;;;6.60;4.90;;;18.80;99.70;;;;;;4952302;28;20482;-83
2023/05/23 00:18:00;;;;;;;5.50;4.90;;;18.70;99.70;;;;;;5015315;28;20454;-83
2023/05/23 00:21:03;;;;;;;5.70;4.80;;;18.60;99.80;;;;;;5018702;28;20485;-82
2023/05/23 00:26:50;;;;;;;6.37;5.40;;;18.60;99.80;;;;;;5007693;28;20514;-83
2023/05/23 00:29:45;;;;;;;5.33;4.43;;;18.60;99.90;;;;;;5022017;28;20861;-83
2023/05/23 00:32:39;;;;;;;6.37;5.47;;;18.60;99.90;;;;;;5015415;28;20549;-85
2023/05/23 00:35:26;;;;;;;5.73;4.80;;;18.50;99.90;;;;;;5008780;28;20580;-84
2023/05/23 00:38:10;;;;;;;8.73;5.40;;;18.50;99.90;;;;;;5008554;28;20462;-84
2023/05/23 00:41:03;;;;;;;6.00;4.90;;;18.60;99.90;;;;;;5012270;28;21000;-82
2023/05/23 00:43:54;;;;;;;6.70;5.60;;;18.50;99.90;;;;;;5015759;28;20509;-82
2023/05/23 00:46:53;;;;;;;6.67;5.60;;;18.40;99.90;;;;;;5032491;28;20536;-82
2023/05/23 00:49:33;;;;;;;7.10;5.50;;;18.40;99.90;;;;;;5027793;28;20454;-84
2023/05/23 00:52:05;;;;;;;6.87;5.77;;;18.40;99.90;;;;;;5012507;28;20469;-83
2023/05/23 00:54:47;;;;;;;6.20;5.60;;;18.50;99.90;;;;;;5015971;28;20482;-83
2023/05/23 00:57:21;;;;;;;6.67;5.80;;;18.50;99.90;;;;;;5014652;28;20538;-84
2023/05/23 01:00:23;;;;;;;6.50;5.80;;;18.40;99.90;;;;;;5014242;28;20553;-83
2023/05/23 01:03:01;;;;;;;6.77;6.07;;;18.40;99.90;;;;;;5013837;28;20541;-81
2023/05/23 01:05:38;;;;;;;8.33;5.57;;;18.40;99.90;;;;;;5015951;28;21067;-84
2023/05/23 01:08:11;;;;;;;6.43;5.40;;;18.50;99.90;;;;;;5014246;28;20512;-82
2023/05/23 01:11:20;;;;;;;6.50;4.83;;;18.40;99.70;;;;;;5011919;28;20417;-84
2023/05/23 01:14:25;;;;;;;6.63;5.60;;;18.40;99.70;;;;;;5012748;28;20934;-84
2023/05/23 01:17:09;;;;;;;6.10;5.23;;;18.40;99.60;;;;;;5017300;28;20866;-84
2023/05/23 01:19:57;;;;;;;6.27;4.87;;;18.50;99.40;;;;;;5029134;28;20531;-84
2023/05/23 01:23:04;;;;;;;7.70;5.33;;;18.40;99.20;;;;;;5015132;28;20454;-85
2023/05/23 01:26:07;;;;;;;4.63;4.20;;;18.50;99.20;;;;;;5011016;28;20482;-81
2023/05/23 01:29:04;;;;;;;4.97;4.40;;;18.50;98.90;;;;;;5008889;28;20438;-83
2023/05/23 01:31:45;;;;;;;6.50;4.67;;;18.60;98.70;;;;;;5007500;28;20517;-83
2023/05/23 01:34:22;;;;;;;6.00;5.13;;;18.50;98.80;;;;;;5010529;28;20482;-84
2023/05/23 01:36:56;;;;;;;6.00;4.70;;;18.40;99.00;;;;;;5008574;28;20465;-81
2023/05/23 01:39:37;;;;;;;6.77;5.20;;;18.30;99.30;;;;;;5008848;28;20526;-83
2023/05/23 01:42:23;;;;;;;7.53;6.03;;;18.20;99.50;;;;;;5006317;28;20459;-83
2023/05/23 01:45:04;;;;;;;6.53;5.03;;;18.20;99.70;;;;;;5011948;28;20545;-84
2023/05/23 01:47:59;;;;;;;6.10;4.90;;;18.30;99.80;;;;;;5013700;28;20457;-82
2023/05/23 01:51:00;;;;;;;6.20;5.03;;;18.40;99.50;;;;;;5014925;28;20528;-83
2023/05/23 01:54:01;;;;;;;6.03;5.33;;;18.40;99.60;;;;;;5013281;28;20546;-83
2023/05/23 01:59:51;;;;;;;5.73;5.13;;;18.30;99.80;;;;;;5017743;28;20446;-83
2023/05/23 02:02:28;;;;;;;4.03;3.63;;;18.20;99.70;;;;;;5020786;28;20461;-82
2023/05/23 02:05:18;;;;;;;4.40;4.00;;;18.20;99.60;;;;;;5017008;28;20905;-85
2023/05/23 02:08:09;;;;;;;3.80;3.50;;;18.20;99.30;;;;;;5010412;28;20461;-82
2023/05/23 02:11:00;;;;;;;6.53;3.30;;;18.20;99.30;;;;;;5013671;28;20426;-84
2023/05/23 02:14:04;;;;;;;4.07;3.67;;;18.20;99.10;;;;;;4994182;28;20494;-83
2023/05/23 02:16:41;;;;;;;3.80;3.30;;;18.20;99.10;;;;;;5009915;28;20454;-83
2023/05/23 02:19:50;;;;;;;3.23;2.93;;;18.10;98.90;;;;;;5004744;28;20446;-83
2023/05/23 02:22:43;;;;;;;3.23;2.93;;;18.10;98.90;;;;;;5008924;28;20979;-83
2023/05/23 02:25:26;;;;;;;3.87;3.57;;;18.30;98.80;;;;;;5024701;28;20470;-83
2023/05/23 02:28:08;;;;;;;5.23;4.13;;;18.20;98.40;;;;;;5009291;28;20454;-82
2023/05/23 02:30:54;;;;;;;3.03;2.73;;;18.10;98.50;;;;;;5007129;28;20845;-82
2023/05/23 02:34:06;;;;;;;2.93;2.73;;;18.00;98.50;;;;;;5007096;28;20478;-82
2023/05/23 02:37:02;;;;;;;3.93;2.80;;;18.10;98.40;;;;;;5010738;28;20446;-82
2023/05/23 02:39:51;;;;;;;2.90;2.43;;;18.10;98.50;;;;;;5007614;28;20537;-82
2023/05/23 02:42:36;;;;;;;3.00;2.70;;;18.10;98.40;;;;;;4967996;28;20460;-81
2023/05/23 02:45:22;;;;;;;3.23;2.93;;;18.00;98.40;;;;;;4947653;28;20481;-84
2023/05/23 02:47:56;;;;;;;4.07;2.70;;;17.90;98.30;;;;;;5008813;28;20478;-82
2023/05/23 02:50:33;;;;;;;3.10;2.80;;;17.90;98.50;;;;;;5008937;28;20545;-82
2023/05/23 02:53:25;;;;;;;3.10;2.70;;;17.90;98.60;;;;;;5009965;28;20539;-81
2023/05/23 02:56:10;;;;;;;3.83;3.20;;;17.80;98.80;;;;;;5005116;28;20466;-82
2023/05/23 02:58:49;;;;;;;3.30;3.00;;;17.80;99.00;;;;;;5008504;28;20454;-82
2023/05/23 03:01:36;;;;;;;3.00;2.80;;;17.80;99.00;;;;;;5009596;28;20525;-83
2023/05/23 03:04:28;;;;;;;4.40;2.90;;;17.80;99.10;;;;;;5010471;28;20470;-83
2023/05/23 03:07:34;;;;;;;3.00;2.80;;;17.80;99.30;;;;;;5007435;28;20484;-81
2023/05/23 03:10:21;;;;;;;3.00;2.80;;;17.90;99.10;;;;;;5000529;28;20531;-84
2023/05/23 03:13:13;;;;;;;3.47;3.17;;;17.80;99.10;;;;;;5016153;28;20454;-85
2023/05/23 03:16:12;;;;;;;3.33;3.03;;;17.80;99.10;;;;;;5009886;28;20436;-82
2023/05/23 03:19:00;;;;;;;3.70;3.40;;;17.80;99.60;;;;;;5006504;28;20489;-83
2023/05/23 03:21:55;;;;;;;4.30;3.70;;;17.90;99.30;;;;;;4989464;28;20438;-83
2023/05/23 03:25:27;;;;;;;5.60;4.03;;;17.80;99.40;;;;;;5010929;28;20462;-83
2023/05/23 03:28:45;;;;;;;4.70;3.67;;;17.80;99.60;;;;;;4958908;28;20590;-84
2023/05/23 03:31:29;;;;;;;4.20;3.80;;;17.80;99.70;;;;;;4967912;28;20519;-84
2023/05/23 03:37:07;;;;;;;3.80;3.50;;;17.70;99.80;;;;;;5007463;28;20549;-84
2023/05/23 03:39:44;;;;;;;4.80;4.30;;;17.70;99.90;;;;;;5017459;28;20523;-82
2023/05/23 03:42:57;;;;;;;6.10;3.63;;;17.70;99.90;;;;;;5014057;28;20446;-82
2023/05/23 03:45:42;;;;;;;5.67;4.63;;;17.70;99.90;;;;;;5006935;28;20473;-82
2023/05/23 03:49:01;;;;;;;6.20;4.90;;;17.70;99.90;;;;;;4991508;28;20929;-83
2023/05/23 03:51:59;;;;;;;4.53;4.13;;;17.70;99.90;;;;;;5009927;28;20462;-84
2023/05/23 03:54:36;;;;;;;5.30;4.67;;;17.70;99.90;;;;;;5012452;28;20937;-83
2023/05/23 03:57:05;;;;;;;6.10;4.80;;;17.60;99.90;;;;;;5012905;28;20512;-83
2023/05/23 03:59:38;;;;;;;5.00;4.43;;;17.70;99.90;;;;;;5020944;28;20831;-85
2023/05/23 04:09:02;;;;;;;5.63;4.20;;;17.40;99.90;;;;;;4983600;28;20434;-84
2023/05/23 04:12:26;;;;;;;4.90;3.87;;;17.40;99.90;;;;;;5013877;28;20430;-83
2023/05/23 04:15:39;;;;;;;3.50;3.10;;;17.40;99.90;;;;;;4983069;28;20509;-83
2023/05/23 04:21:33;;;;;;;4.10;3.70;;;17.30;99.90;;;;;;5019977;28;20435;-82
2023/05/23 04:24:21;;;;;;;5.43;3.73;;;17.40;99.90;;;;;;5028194;28;20447;-82
2023/05/23 04:27:38;;;;;;;6.97;3.43;;;17.40;99.90;;;;;;5013145;28;20438;-83
2023/05/23 04:30:43;;;;;;;4.57;3.50;;;17.40;99.90;;;;;;5006740;28;20797;-83
2023/05/23 04:33:57;;;;;;;4.63;3.57;;;17.40;99.90;;;;;;5027987;28;20433;-84
2023/05/23 04:40:06;;;;;;;4.90;3.80;;;17.40;99.90;;;;;;5015815;28;20466;-82
2023/05/23 04:42:58;;;;;;;4.20;3.80;;;17.50;99.90;;;;;;5023228;28;20450;-84
2023/05/23 04:45:53;;;;;;;4.93;3.93;;;17.40;99.90;;;;;;4988825;28;20462;-81
2023/05/23 04:48:52;;;;;;;3.87;3.37;;;17.50;99.90;;;;;;5022096;28;20453;-83
2023/05/23 04:52:04;;;;;;;6.53;4.30;;;17.60;99.90;;;;;;5014518;28;20447;-83
2023/05/23 04:55:09;;;;;;;3.90;3.40;;;17.50;99.90;;;;;;4994288;28;20482;-83
2023/05/23 04:57:58;;;;;;;4.30;3.60;;;17.40;99.90;;;;;;4988554;28;21297;-83
2023/05/23 05:01:14;;;;;;;4.67;3.50;;;17.40;99.90;;;;;;5010665;28;20418;-83
2023/05/23 05:04:11;;;;;;;3.83;3.53;;;17.30;99.90;;;;;;5009690;28;20455;-82
2023/05/23 05:06:54;;;;;;;4.80;3.53;;;17.30;99.90;;;;;;4994915;28;20442;-82
2023/05/23 05:09:44;;;;;;;4.63;3.53;;;17.30;99.90;;;;;;5010424;28;20453;-83
2023/05/23 05:12:43;;;;;;;3.93;3.50;;;17.30;99.90;;;;;;5009261;28;20446;-83
2023/05/23 05:15:42;;;;;;;5.70;4.03;;;17.30;99.90;;;;;;4999920;28;20479;-80
2023/05/23 05:18:56;;;;;;;6.33;3.77;;;17.20;99.90;;;;;;4916579;29;20445;-82
2023/05/23 05:25:17;;;;;;;4.20;3.80;;;17.20;99.90;;;;;;4918663;29;21083;-82
2023/05/23 05:28:24;;;;;;;4.10;3.70;;;17.20;99.90;;;;;;4923981;29;20433;-82
2023/05/23 05:31:29;;;;;;;4.10;3.70;;;17.20;99.90;;;;;;4911926;29;20446;-83
2023/05/23 05:34:32;;;;;;;5.40;3.90;;;17.30;99.90;;;;;;4921803;29;20641;-82
2023/05/23 05:37:12;;;;;;;5.63;4.13;;;17.20;99.90;;;;;;4932355;28;20482;-81
2023/05/23 05:40:25;;;;;;;5.63;4.20;;;17.20;99.90;;;;;;4911199;29;20489;-82
2023/05/23 05:43:33;;;;;;;5.37;3.90;;;17.20;99.90;;;;;;4916070;29;20464;-83
2023/05/23 05:47:12;;;;;;;6.20;3.90;;;17.20;99.90;;;;;;4934036;29;20450;-81
2023/05/23 05:50:22;;;;;;;;;;;;;;;;;;;;;
2023/05/23 05:53:54;;;;;;;5.20;4.27;;;17.20;99.90;;;;;;5004819;28;20522;-83
2023/05/23 05:57:11;;;;;;;5.20;4.60;;;17.20;99.90;;;;;;5009344;28;20460;-83
2023/05/23 06:00:18;;;;;;;4.53;4.07;;;17.20;99.90;;;;;;4999289;28;20899;-83
2023/05/23 06:03:01;;;;;;;5.80;4.60;;;17.30;99.90;;;;;;5011715;28;20560;-82
2023/05/23 06:06:22;;;;;;;6.10;4.20;;;17.30;99.90;;;;;;5006212;28;20564;-84
2023/05/23 06:09:04;;;;;;;5.83;4.03;;;17.30;99.90;;;;;;4975957;28;20525;-83
2023/05/23 06:11:55;;;;;;;5.50;4.77;;;17.20;99.90;;;;;;5006827;28;20459;-81
2023/05/23 06:14:43;;;;;;;5.77;4.30;;;17.20;99.90;;;;;;5006415;28;20552;-83
2023/05/23 06:17:52;;;;;;;4.47;4.07;;;17.20;99.90;;;;;;5002618;28;21012;-83
2023/05/23 06:27:37;;;;;;;6.23;4.40;;;17.30;99.90;;;;;;5010739;28;20468;-84
2023/05/23 06:30:37;;;;;;;6.00;4.07;;;17.30;99.90;;;;;;5006984;28;20492;-84
2023/05/23 06:33:50;;;;;;;4.87;4.20;;;17.40;99.90;;;;;;5008138;28;20468;-85
2023/05/23 06:36:47;;;;;;;5.13;4.63;;;17.30;99.90;;;;;;5010430;28;20581;-83
2023/05/23 06:43:50;;;;;;;6.27;4.70;;;17.20;99.90;;;;;;5008696;28;20496;-83
2023/05/23 06:47:00;;;;;;;;;;;;;;;;;;;;;
2023/05/23 06:50:18;;;;;;;5.40;4.60;;;17.20;99.90;;;;;;5001122;28;20529;-83
2023/05/23 06:53:13;;;;;;;7.20;4.77;;;17.10;99.90;;;;;;4988269;28;20450;-83
2023/05/23 06:55:56;;;;;;;5.50;4.30;;;17.20;99.90;;;;;;4997646;28;20509;-82
2023/05/23 06:58:43;;;;;;;6.23;4.53;;;17.10;99.90;;;;;;5004867;28;20477;-83
2023/05/23 07:01:26;;;;;;;8.23;4.63;;;17.10;99.90;;;;;;4943913;28;20441;-82
2023/05/23 07:04:42;;;;;;;6.80;6.20;;;17.10;99.90;;;;;;4938858;28;21177;-83
2023/05/23 07:08:04;;;;;;;7.30;4.70;;;17.10;99.90;;;;;;4974573;28;20588;-83
2023/05/23 07:11:03;;;;;;;5.90;5.30;;;17.20;99.90;;;;;;5008326;28;20447;-81
2023/05/23 07:14:34;;;;;;;8.57;4.90;;;17.30;99.90;;;;;;4964249;28;20499;-83
2023/05/23 07:18:11;;;;;;;;;;;;;;;;;;;;;
2023/05/23 07:21:09;;;;;;;4.40;4.00;;;17.30;99.90;;;;;;4961263;28;20860;-82
2023/05/23 07:23:59;;;;;;;4.23;3.83;;;17.30;99.90;;;;;;4957766;28;20445;-83
2023/05/23 07:27:06;;;;;;;7.73;5.87;;;17.40;99.90;;;;;;4996056;28;20547;-81
2023/05/23 07:30:04;;;;;;;5.30;4.30;;;17.30;99.90;;;;;;5007524;28;20435;-81
2023/05/23 07:32:43;;;;;;;5.67;4.50;;;17.30;99.90;;;;;;5033501;28;20492;-82
2023/05/23 07:35:39;;;;;;;4.53;3.90;;;17.40;99.90;;;;;;5022776;28;20498;-81
2023/05/23 07:38:35;;;;;;;6.77;4.43;;;17.50;99.90;;;;;;5022737;28;20449;-81
2023/05/23 07:41:50;;;;;;;6.00;4.43;;;17.50;99.90;;;;;;5010770;28;20447;-82
2023/05/23 07:44:48;;;;;;;6.20;3.90;;;17.40;99.90;;;;;;4876524;29;20523;-81
2023/05/23 07:47:57;;;;;;;6.20;4.20;;;17.40;99.90;;;;;;4880124;29;20522;-81
2023/05/23 07:51:23;;;;;;;4.00;3.70;;;17.50;99.90;;;;;;4882817;29;20480;-81
2023/05/23 07:55:07;;;;;;;;;;;;;;;;;;;;;
2023/05/23 07:58:10;;;;;;;6.27;4.73;;;17.60;99.90;;;;;;4881414;29;20810;-82
2023/05/23 08:01:19;;;;;;;5.60;3.57;;;17.60;99.90;;;;;;4937053;28;20615;-83
2023/05/23 08:04:13;;;;;;;6.03;4.20;;;17.80;99.90;;;;;;5015041;28;20461;-83
2023/05/23 08:06:54;;;;;;;7.50;5.33;;;17.80;99.90;;;;;;5023604;28;20523;-83
2023/05/23 08:09:46;;;;;;;4.90;4.37;;;17.70;99.90;;;;;;5015440;28;20444;-83
2023/05/23 08:12:33;;;;;;;5.27;3.50;;;17.60;99.90;;;;;;4987588;28;20455;-83
2023/05/23 08:15:35;;;;;;;6.03;4.33;;;17.60;99.90;;;;;;5012472;28;20490;-84
2023/05/23 08:18:49;;;;;;;5.40;4.53;;;17.50;99.90;;;;;;4958099;28;20529;-83
2023/05/23 08:21:52;;;;;;;4.60;3.90;;;17.60;99.90;;;;;;4952615;28;20865;-84
2023/05/23 08:24:29;;;;;;;5.13;3.83;;;17.50;99.90;;;;;;4943533;28;20496;-83
2023/05/23 08:27:13;;;;;;;6.20;3.90;;;17.60;99.90;;;;;;4955780;28;20452;-83
2023/05/23 08:30:11;;;;;;;6.33;4.57;;;17.50;99.90;;;;;;4939098;28;20945;-83
2023/05/23 08:33:31;;;;;;;5.67;3.60;;;17.50;99.90;;;;;;4933704;28;20504;-82
2023/05/23 08:37:14;;;;;;;6.00;4.40;;;17.40;99.90;;;;;;4960429;28;20485;-83
2023/05/23 08:39:55;;;;;;;6.90;3.67;;;17.50;99.90;;;;;;4944049;28;20456;-83
2023/05/23 08:42:46;;;;;;;6.00;4.63;;;17.40;99.90;;;;;;4900910;29;20549;-82
2023/05/23 08:45:38;;;;;;;6.10;4.07;;;17.30;99.90;;;;;;4910731;29;20514;-82
2023/05/23 08:48:57;;;;;;;8.50;5.07;;;17.40;99.90;;;;;;4918197;29;20556;-83
2023/05/23 08:52:02;;;;;;;9.20;4.70;;;17.30;99.90;;;;;;4934773;29;20441;-83
2023/05/23 08:58:51;;;;;;;4.90;4.30;;;17.40;99.90;;;;;;4873926;29;20541;-82
2023/05/23 09:14:20;;;;;;;;;;;;;;;;;;;;;
2023/05/23 09:17:45;;;;;;;9.57;6.20;;;17.30;99.90;;;;;;4811023;29;20443;-83
2023/05/23 09:28:11;;;;;;;;;;;;;;;;;;;;;
2023/05/23 09:35:58;;;;;;;6.13;4.00;;;17.60;99.90;;;;;;4842872;29;20840;-82
2023/05/23 09:43:06;;;;;;;;;;;;;;;;;;;;;
2023/05/23 09:46:41;;;;;;;6.97;5.57;;;17.50;99.90;;;;;;4869800;29;20869;-84
2023/05/23 09:57:23;;;;;;;9.67;5.50;;;17.30;99.50;;;;;;4913087;29;20469;-84
2023/05/23 10:01:05;;;;;;;11.10;7.90;;;17.40;98.70;;;;;;4914889;29;20410;-84
2023/05/23 10:04:09;;;;;;;9.97;6.30;;;17.20;98.90;;;;;;4835372;29;20446;-83
2023/05/23 10:10:58;;;;;;;14.90;8.80;;;16.90;99.20;;;;;;4898391;29;20479;-82
2023/05/23 10:18:19;;;;;;;11.30;7.90;;;17.20;98.70;;;;;;4847602;29;20434;-83
2023/05/23 10:21:58;;;;;;;12.50;7.83;;;17.70;98.50;;;;;;4833604;29;20958;-82
2023/05/23 10:28:55;;;;;;;5.93;4.30;;;17.80;97.10;;;;;;4828814;29;20568;-83
2023/05/23 10:32:18;;;;;;;6.87;4.60;;;17.50;97.60;;;;;;4772677;29;20442;-82
2023/05/23 10:35:55;;;;;;;;;;;;;;;;;;;;;
2023/05/23 10:39:58;;;;;;;7.80;4.70;;;17.30;98.20;;;;;;4879754;29;20431;-83
2023/05/23 10:43:41;;;;;;;6.57;4.20;;;17.30;97.80;;;;;;4849796;29;20933;-83
2023/05/23 10:47:18;;;;;;;;;;;;;;;;;;;;;
2023/05/23 10:51:03;;;;;;;7.27;3.83;;;17.50;97.20;;;;;;4800584;29;20463;-84
2023/05/23 10:57:33;;;;;;;;;;;;;;;;;;;;;
2023/05/23 11:01:06;;;;;;;3.63;2.93;;;17.60;96.00;;;;;;5004398;28;20443;-83
2023/05/23 11:04:14;;;;;;;;;;;;;;;;;;;;;
2023/05/23 11:14:54;;;;;;;4.27;3.90;;;17.70;95.10;;;;;;4872905;29;20545;-84
2023/05/23 11:18:27;;;;;;;5.60;4.30;;;17.60;95.50;;;;;;4878111;29;20995;-84
2023/05/23 11:25:28;;;;;;;5.20;4.33;;;17.40;95.50;;;;;;4884925;29;20580;-84
2023/05/23 11:28:51;;;;;;;5.97;4.90;;;17.30;95.50;;;;;;4942437;28;20461;-84
2023/05/23 11:32:18;;;;;;;6.67;4.40;;;17.40;95.40;;;;;;4955730;29;20440;-85
2023/05/23 11:36:09;;;;;;;5.83;4.77;;;17.40;95.10;;;;;;4942586;29;20635;-83
2023/05/23 11:43:19;;;;;;;8.63;5.83;;;17.50;94.70;;;;;;4962824;28;20530;-83
2023/05/23 11:50:31;;;;;;;8.40;5.93;;;17.50;92.90;;;;;;4867385;29;20895;-83
2023/05/23 11:53:34;;;;;;;8.23;6.30;;;18.30;91.60;;;;;;4878768;29;20893;-83
2023/05/23 11:56:59;;;;;;;7.93;7.10;;;18.40;91.30;;;;;;4901613;29;20580;-84
2023/05/23 12:00:04;;;;;;;11.30;7.03;;;18.40;90.90;;;;;;4932354;29;20461;-84
2023/05/23 12:03:15;;;;;;;9.87;7.57;;;18.60;91.00;;;;;;4938711;29;20436;-82
2023/05/23 12:06:51;;;;;;;8.00;7.20;;;19.20;90.10;;;;;;4945076;29;21347;-83
2023/05/23 12:09:44;;;;;;;9.47;6.57;;;19.20;88.10;;;;;;4903927;29;20494;-84
2023/05/23 12:12:31;;;;;;;9.23;6.70;;;19.70;88.30;;;;;;4916022;29;20505;-84
2023/05/23 12:16:19;;;;;;;;;;;;;;;;;;;;;
2023/05/23 12:19:32;;;;;;;10.13;7.10;;;20.80;78.70;;;;;;4923874;29;20438;-84
2023/05/23 12:22:59;;;;;;;8.63;6.07;;;20.20;81.00;;;;;;4946617;28;20461;-82
2023/05/23 12:25:56;;;;;;;7.27;6.57;;;19.70;82.90;;;;;;4964922;28;20525;-82
2023/05/23 12:28:52;;;;;;;7.87;6.70;;;19.60;83.70;;;;;;4935524;29;20433;-83
2023/05/23 12:36:06;;;;;;;9.00;6.17;;;19.90;82.20;;;;;;4878305;29;20511;-83
2023/05/23 12:39:08;;;;;;;8.40;5.33;;;19.60;80.70;;;;;;4831781;29;20430;-82
2023/05/23 12:42:09;;;;;;;8.63;5.13;;;19.20;82.70;;;;;;4828827;29;20544;-84
2023/05/23 12:45:09;;;;;;;5.30;4.30;;;18.90;84.10;;;;;;4840155;29;20479;-83
2023/05/23 12:51:08;;;;;;;15.70;12.33;;;19.50;83.10;;;;;;4874409;29;20461;-83
2023/05/23 12:53:46;;;;;;;21.07;14.33;;;19.60;81.50;;;;;;4879257;29;20505;-82
2023/05/23 12:56:33;;;;;;;11.47;7.40;;;19.20;81.90;;;;;;4864945;29;20491;-85
2023/05/23 12:59:08;;;;;;;7.53;6.07;;;19.30;80.50;;;;;;4870786;29;20512;-84
2023/05/23 13:02:09;;;;;;;7.67;6.77;;;18.90;80.80;;;;;;4936450;28;20485;-82
2023/05/23 13:04:55;;;;;;;9.43;6.43;;;18.70;82.10;;;;;;5012651;28;20469;-84
2023/05/23 13:07:32;;;;;;;10.60;8.30;;;18.70;82.50;;;;;;5008869;28;20475;-85
2023/05/23 13:10:16;;;;;;;8.93;7.73;;;18.80;82.30;;;;;;5004813;28;20525;-84
2023/05/23 13:13:15;;;;;;;8.60;7.67;;;19.00;81.60;;;;;;5007876;28;20517;-84
2023/05/23 13:16:11;;;;;;;9.40;7.77;;;19.20;80.80;;;;;;5082921;22;20470;-83
2023/05/23 13:18:50;;;;;;;8.77;7.87;;;19.30;80.30;;;;;;5011722;28;20459;-84
2023/05/23 13:21:36;;;;;;;8.33;7.33;;;19.30;80.60;;;;;;5011721;28;20445;-84
2023/05/23 13:24:16;;;;;;;10.90;9.00;;;18.90;81.20;;;;;;5026199;28;20456;-83
2023/05/23 13:26:52;;;;;;;8.93;6.77;;;18.90;81.70;;;;;;5025276;28;20461;-82
2023/05/23 13:29:40;;;;;;;7.43;5.87;;;19.10;80.90;;;;;;5019504;28;20432;-83
2023/05/23 13:32:08;;;;;;;6.70;5.40;;;19.30;79.40;;;;;;5023237;28;20452;-83
2023/05/23 13:34:56;;;;;;;6.50;5.90;;;19.30;78.60;;;;;;5030791;28;20462;-83
2023/05/23 13:41:13;;;;;;;5.87;4.80;;;19.40;77.80;;;;;;5009548;28;20462;-83
2023/05/23 13:44:22;;;;;;;5.20;4.70;;;19.40;77.40;;;;;;5014005;28;20459;-84
2023/05/23 13:47:38;;;;;;;5.20;4.40;;;19.40;76.50;;;;;;5011687;28;20490;-83
2023/05/23 13:50:40;;;;;;;5.87;5.00;;;19.50;75.60;;;;;;5006789;28;20526;-82
2023/05/23 13:53:16;;;;;;;5.50;5.00;;;19.60;74.90;;;;;;5008771;28;20500;-83
2023/05/23 13:56:15;;;;;;;6.67;4.90;;;19.60;74.20;;;;;;5009598;28;20477;-84
2023/05/23 13:58:59;;;;;;;7.90;4.70;;;19.80;73.80;;;;;;5013244;28;20549;-83
2023/05/23 14:01:35;;;;;;;5.20;4.40;;;19.80;71.20;;;;;;5007412;28;20459;-84
2023/05/23 14:04:40;;;;;;;6.03;5.43;;;19.90;70.30;;;;;;4999488;28;20459;-83
2023/05/23 14:07:36;;;;;;;8.50;7.57;;;20.40;67.50;;;;;;4944747;28;20826;-83
2023/05/23 14:10:20;;;;;;;10.30;9.40;;;20.10;67.40;;;;;;4980584;28;20507;-82
2023/05/23 14:12:53;;;;;;;9.07;8.17;;;20.00;66.80;;;;;;5009247;28;20450;-84
2023/05/23 14:15:40;;;;;;;11.00;9.90;;;19.90;66.70;;;;;;5010351;28;20482;-84
2023/05/23 14:18:27;;;;;;;10.30;9.40;;;20.00;66.80;;;;;;5015549;28;20475;-83
2023/05/23 14:21:30;;;;;;;10.10;9.20;;;20.70;64.80;;;;;;5017257;28;20530;-84
2023/05/23 14:24:07;;;;;;;11.43;9.13;;;20.30;63.60;;;;;;5010750;28;20459;-83
2023/05/23 14:26:53;;;;;;;11.30;9.00;;;20.30;62.20;;;;;;5006829;28;20466;-82
2023/05/23 14:29:45;;;;;;;11.57;10.47;;;20.00;64.30;;;;;;5012618;28;20521;-84
2023/05/23 14:32:22;;;;;;;10.80;9.70;;;20.00;64.00;;;;;;5013020;28;20481;-83
2023/05/23 14:35:28;;;;;;;9.50;8.50;;;20.20;63.30;;;;;;4993926;28;20479;-83
2023/05/23 14:42:02;;;;;;;10.50;9.50;;;20.30;63.50;;;;;;4921131;29;20530;-84
2023/05/23 14:45:38;;;;;;;11.23;10.13;;;20.20;62.60;;;;;;4995638;28;20493;-83
2023/05/23 14:49:09;;;;;;;9.93;8.67;;;20.00;63.40;;;;;;4987735;28;20418;-83
2023/05/23 14:52:26;;;;;;;10.97;8.83;;;20.30;62.40;;;;;;4971573;28;20455;-82
2023/05/23 14:55:20;;;;;;;10.33;7.97;;;20.00;62.50;;;;;;4970600;28;20479;-82
2023/05/23 14:58:07;;;;;;;8.97;7.87;;;20.00;62.20;;;;;;5003485;28;20445;-83
2023/05/23 15:01:17;;;;;;;10.10;7.90;;;19.80;63.20;;;;;;5007209;28;20961;-84
2023/05/23 15:04:21;;;;;;;9.43;8.33;;;19.80;62.60;;;;;;4998404;28;20533;-83
2023/05/23 15:06:56;;;;;;;9.70;8.93;;;19.60;63.00;;;;;;5008482;28;20510;-83
2023/05/23 15:10:01;;;;;;;10.00;9.10;;;19.60;63.20;;;;;;5009144;28;20459;-83
2023/05/23 15:12:44;;;;;;;9.10;8.40;;;19.60;63.80;;;;;;5003381;28;20462;-83
2023/05/23 15:15:43;;;;;;;11.90;8.80;;;19.60;63.00;;;;;;5007537;28;20478;-83
2023/05/23 15:18:22;;;;;;;9.60;8.60;;;19.70;62.80;;;;;;5006853;28;20490;-84
2023/05/23 15:21:42;;;;;;;9.53;8.03;;;19.70;62.20;;;;;;5013192;28;20466;-83
2023/05/23 15:24:31;;;;;;;8.53;7.73;;;19.50;62.60;;;;;;5003375;28;20553;-84
2023/05/23 15:27:37;;;;;;;7.23;6.57;;;19.70;63.20;;;;;;4972301;28;20453;-84
2023/05/23 15:30:13;;;;;;;6.67;6.07;;;19.80;62.40;;;;;;5024262;28;20477;-84
2023/05/23 15:32:58;;;;;;;8.00;6.03;;;19.60;62.30;;;;;;5005856;28;20459;-84
2023/05/23 15:35:51;;;;;;;5.20;4.80;;;19.50;63.20;;;;;;5008099;28;20506;-83
2023/05/23 15:38:45;;;;;;;8.80;7.00;;;19.60;63.60;;;;;;5009430;28;20809;-85
2023/05/23 15:41:19;;;;;;;7.70;6.90;;;19.70;63.30;;;;;;5006929;28;20450;-83
2023/05/23 15:44:02;;;;;;;10.40;6.63;;;19.60;63.20;;;;;;5008504;28;20439;-84
2023/05/23 15:46:46;;;;;;;6.40;5.80;;;19.90;63.30;;;;;;5015230;28;20770;-83
2023/05/23 15:49:29;;;;;;;8.13;6.80;;;19.90;62.90;;;;;;5011096;28;20458;-83
2023/05/23 15:52:39;;;;;;;9.50;6.60;;;20.00;62.60;;;;;;5024835;28;21240;-83
2023/05/23 15:56:04;;;;;;;7.50;6.33;;;19.90;62.80;;;;;;5072891;23;20569;-83
2023/05/23 15:58:34;;;;;;;11.23;6.73;;;20.10;62.80;;;;;;5054779;28;20452;-84
2023/05/23 16:05:04;;;;;;;;;;;;;;;;;;;;;
2023/05/23 16:11:19;;;;;;;7.60;5.97;;;19.50;62.60;;;;;;5045991;28;20410;-84
2023/05/23 16:14:18;;;;;;;9.13;7.07;;;19.80;62.70;;;;;;5022464;28;20820;-83
2023/05/23 16:16:56;;;;;;;7.27;6.10;;;19.60;61.20;;;;;;5041221;28;20481;-84
2023/05/23 16:19:53;;;;;;;6.50;5.90;;;19.90;61.10;;;;;;5033709;28;20462;-83
2023/05/23 16:22:55;;;;;;;7.87;5.30;;;19.90;60.30;;;;;;4975664;28;20553;-83
2023/05/23 16:25:54;;;;;;;7.03;5.70;;;20.00;60.20;;;;;;4977125;28;20521;-84
2023/05/23 16:28:49;;;;;;;7.67;4.80;;;20.10;60.20;;;;;;4969883;28;20471;-83
2023/05/23 16:31:41;;;;;;;5.87;5.27;;;20.40;59.20;;;;;;4961203;28;20554;-83
2023/05/23 16:34:45;;;;;;;6.77;4.97;;;20.10;58.70;;;;;;4970546;28;20553;-83
2023/05/23 16:37:47;;;;;;;6.03;5.37;;;20.10;59.00;;;;;;4958331;28;20474;-83
2023/05/23 16:44:35;;;;;;;10.10;6.80;;;20.40;58.00;;;;;;4893281;29;20456;-82
2023/05/23 16:48:23;;;;;;;7.70;6.60;;;20.10;58.20;;;;;;4910090;29;20568;-81
2023/05/23 16:51:15;;;;;;;7.17;6.17;;;20.20;57.90;;;;;;4915107;28;20508;-83
2023/05/23 16:54:10;;;;;;;7.50;5.53;;;19.90;58.40;;;;;;4986203;28;20582;-84
2023/05/23 17:09:31;;;;;;;5.03;4.33;;;19.40;60.00;;;;;;4835552;29;20503;-84
2023/05/23 17:12:46;;;;;;;5.80;4.50;;;19.50;59.60;;;;;;4916908;29;20781;-84
2023/05/23 17:16:15;;;;;;;6.10;4.57;;;19.50;59.90;;;;;;4933948;29;20513;-83
2023/05/23 17:19:21;;;;;;;6.17;4.33;;;19.30;60.40;;;;;;4936539;29;20470;-85
2023/05/23 17:23:02;;;;;;;;;;;;;;;;;;;;;
2023/05/23 17:29:55;;;;;;;6.20;3.63;;;18.90;61.60;;;;;;4987532;28;20444;-84
2023/05/23 17:36:20;;;;;;;4.20;3.40;;;18.90;61.90;;;;;;4988715;28;20821;-83
2023/05/23 17:39:55;;;;;;;;;;;;;;;;;;;;;
2023/05/23 17:43:06;;;;;;;5.80;3.37;;;18.70;61.80;;;;;;4995744;28;20485;-83
2023/05/23 17:45:53;;;;;;;4.37;3.33;;;18.80;61.80;;;;;;4995982;28;20466;-84
2023/05/23 17:48:50;;;;;;;8.30;3.90;;;18.70;62.10;;;;;;4987988;28;20428;-83
2023/05/23 17:51:47;;;;;;;9.20;4.40;;;18.50;62.90;;;;;;4999522;28;20471;-84
2023/05/23 17:55:24;;;;;;;6.33;4.57;;;18.50;63.30;;;;;;4988817;28;20982;-84
2023/05/23 17:58:04;;;;;;;6.53;5.53;;;18.50;63.20;;;;;;4992064;28;21008;-84
2023/05/23 18:00:45;;;;;;;8.03;5.80;;;18.60;62.60;;;;;;4997134;28;20629;-84
2023/05/23 18:03:48;;;;;;;8.90;7.40;;;18.40;61.70;;;;;;4983633;28;20472;-83
2023/05/23 18:06:48;;;;;;;8.63;5.73;;;18.60;61.70;;;;;;5000358;28;20457;-83
2023/05/23 18:09:47;;;;;;;;;;;;;;;;;;;;;
2023/05/23 18:15:53;;;;;;;9.13;5.60;;;18.60;61.00;;;;;;4961514;28;20484;-84
2023/05/23 18:18:34;;;;;;;7.03;4.87;;;18.30;61.20;;;;;;4989221;28;20456;-84
2023/05/23 18:21:36;;;;;;;6.60;4.70;;;18.20;60.80;;;;;;4987580;28;20442;-85
2023/05/23 18:24:35;;;;;;;7.77;3.77;;;18.50;60.30;;;;;;4992689;28;20471;-82
2023/05/23 18:27:26;;;;;;;7.77;4.70;;;18.40;60.30;;;;;;4989460;28;20471;-84
2023/05/23 18:30:38;;;;;;;5.93;3.67;;;18.20;61.10;;;;;;4994148;28;20435;-83